KRDG/RDG METAR and TAF weather

Enter ICAO airport designator
Station Type Date Time Source
KRDG METAR 2020/03/28 15:08 UTC NOAA

KRDG 281508Z 15005KT 5SM RA BR OVC009 07/07 A3004 RMK AO2 P0002 T00720067


Station Type Date Time Source
KRDG Decoded METAR 2020/03/28 15:08 UTC NOAA

READING REGIONAL AIRPORT, PA, United States (KRDG) 40-22N 075-58W 109M
Mar 28, 2020 - 11:08 AM EDT / 2020.03.28 1508 UTC
Wind: from the SSE (150 degrees) at 6 MPH (5 KT):0
Visibility: 5 mile(s):0
Sky conditions: overcast
Weather: rain; mist
Precipitation last hour: 0.02 inches
Temperature: 45.0 F (7.2 C)
Dew Point: 44.1 F (6.7 C)
Relative Humidity: 96%
Pressure (altimeter): 30.04 in. Hg (1017 hPa)
ob: KRDG 281508Z 15005KT 5SM RA BR OVC009 07/07 A3004 RMK AO2 P0002 T00720067
cycle: 15

Station Type Date Time Source
KRDG TAF 2020/03/28 15:03 UTC NOAA

TAF
AMD KRDG 281501Z 2815/2912 VRB05KT 6SM -SHRA OVC020
TEMPO 2815/2816 4SM SHRA OVC010
FM281600 11006KT 4SM -SHRA BR OVC008
FM290000 VRB04KT 2SM -RA BR OVC003
FM290500 04005KT 2SM -DZ BR OVC003

Example: see airport list